PKMJPTSA

Guest
Details From PKMJ - MARSHALL ISLANDS INTL
To PTSA - Kosrae
Flight Number -
Tags generated
Created
Modified
Stats Distance 582 nm / 1,078 km
Max Altitude 34,000 ft / 10,363 m
Waypoints 6
Social Downloads 5
Likes 0
Share VATSIM

Download

Looking for another format? Having issues loading an existing format? Contact us
Advertisement - Login to hide

Notes

Basic altitude profile: - Ascent Rate: 2500ft/min - Ascent Speed: 250kts - Cruise Altitude: 35000ft - Cruise Speed: 420kts - Descent Rate: 1500ft/min - Descent Speed: 250kts

Route

PKMJ OREEO R584 NDJNB A222 UKS PTSA

ID Type Via Altitude Latitude Longitude Leg Dist Tot Dist Heading (true) Name
O PKMJ APT - 0 ft / 0 m 7.06476˚ 171.27202˚ - 0 nm - MARSHALL ISLANDS INTL
OREEO FIX - 18,900 ft / 5,761 m 7.44806˚ 170.46917˚ 53 nm 53 nm 296° / 296° -
NDJNB FIX R584 (AWY-HI) 34,000 ft / 10,363 m 8.72087˚ 167.72776˚ 180 nm 233 nm 295° / 295° -
STEFF FIX A222 (AWY-HI) 34,000 ft / 10,363 m 6.98667˚ 165.25500˚ 180 nm 413 nm 235° / 235° -
UKS NDB A222 (AWY-HI) 20,000 ft / 6,096 m 5.35306˚ 162.95694˚ 168 nm 582 nm 235° / 234° KOSRAE NDB
O PTSA APT - 0 ft / 0 m 5.35692˚ 162.95840˚ 0 nm 582 nm 21° / 21° Kosrae

Altitude Profile

Advertisement - Login to hide

Weather


0- 5 10 15 20 25 30 35+ Temperature / ° C

Clouds and Precipitation
Forecast for 2017-12-11 00:00 UTC. Updated an hour ago

Ground ~20,000 ft ~40,000 ft Winds

PKMJ

Details ICAO PKMJ (MAJ)
Name MARSHALL ISLANDS INTL
Region Marshall Islands
Timezone Pacific/Majuro (UTC+12.0)
Stats Elevation 6 ft / 2 m (AMSL)
Location 7.064760° 171.272023°
Runways 1
Magnetic Variation 8.428° E

METAR

PKMJ 102350Z 05016KT 15SM SCT014 SCT050 BKN120 OVC300 28/25 A2979

Decode

TAF

TAF TAF PKMJ 102331Z 1100/1124 07018KT P6SM VCSH SCT015 SCT045 BKN110

Decode

Departure Runways

ID Width Length Bearing (true) Bearing (mag) Surface Threshold Offset Overrun Length
07 150 ft / 46 m 7,898 ft / 2,407 m 76.08° 67.65° Asphalt 0 ft / 0 m 200 ft / 61 m
25 150 ft / 46 m 7,898 ft / 2,407 m 256.08° 247.65° Asphalt 0 ft / 0 m 200 ft / 61 m

PTSA

Details ICAO PTSA (KSA)
Name Kosrae
Region Federated States of Micronesia, Palau
Timezone Unknown (UTC+0.0)
Stats Elevation 11 ft / 3 m (AMSL)
Location 5.356922° 162.958403°
Runways 1
Magnetic Variation 7.146° E

METAR

PTSA 102355Z 11005KT 10SM BKN016TCU BKN130 OVC300 29/26 A2975 RMK TCU NW

Decode

TAF

TAF PTSA 102331Z 1100/1124 08013KT P6SM VCSH SCT017 BKN130 TEMPO 1100/1102 4SM SHRA BKN016 OVC100

Decode

Destination Runways

ID Width Length Bearing (true) Bearing (mag) Surface Threshold Offset Overrun Length
05 151 ft / 46 m 5,749 ft / 1,752 m 55.56° 48.41° Asphalt 0 ft / 0 m 207 ft / 63 m
23 151 ft / 46 m 5,749 ft / 1,752 m 235.56° 228.41° Asphalt 0 ft / 0 m 207 ft / 63 m

Popular Alternatives